Time;durP1;ratioP1;P1;durP2;ratioP2;P2;SDS_P1;SDS_P2;PMS_P1;PMS_P2;Temp;Humidity;BMP_temperature;BMP_pressure;BME280_temperature;BME280_humidity;BME280_pressure;Samples;Min_cycle;Max_cycle;Signal;HPM_P1;HPM_P2
2021/05/09 00:00:37;;;;;;;9.90;4.38;;;12.50;91.40;;;;;;4975539;28;20105;-85
2021/05/09 00:03:03;;;;;;;10.60;5.75;;;12.50;91.30;;;;;;4974852;28;20046;-85
2021/05/09 00:05:29;;;;;;;11.73;5.35;;;12.50;91.40;;;;;;4975030;28;20415;-85
2021/05/09 00:07:55;;;;;;;11.88;5.50;;;12.60;91.50;;;;;;4975369;28;20055;-85
2021/05/09 00:10:20;;;;;;;7.90;5.25;;;12.60;91.50;;;;;;4974771;28;20055;-84
2021/05/09 00:12:47;;;;;;;9.60;5.55;;;12.60;91.40;;;;;;4975305;28;20047;-85
2021/05/09 00:15:14;;;;;;;10.73;5.10;;;12.60;91.60;;;;;;4975750;28;20046;-85
2021/05/09 00:17:41;;;;;;;9.18;5.90;;;12.60;91.50;;;;;;4974471;28;20051;-84
2021/05/09 00:20:09;;;;;;;9.32;5.32;;;12.50;91.40;;;;;;4975440;28;20055;-84
2021/05/09 00:22:36;;;;;;;7.50;5.20;;;12.60;91.50;;;;;;4974965;28;20490;-84
2021/05/09 00:25:02;;;;;;;9.38;4.95;;;12.60;91.40;;;;;;4974406;28;20141;-84
2021/05/09 00:27:40;;;;;;;9.10;5.10;;;12.50;91.20;;;;;;4974367;28;20043;-84
2021/05/09 00:30:06;;;;;;;10.18;4.97;;;12.60;91.40;;;;;;4974699;28;20050;-85
2021/05/09 00:32:32;;;;;;;6.97;4.85;;;12.50;91.50;;;;;;4974452;28;20054;-84
2021/05/09 00:34:58;;;;;;;8.98;5.18;;;12.50;91.50;;;;;;4974964;28;20054;-84
2021/05/09 00:37:24;;;;;;;9.30;5.40;;;12.50;91.60;;;;;;4974948;28;20043;-84
2021/05/09 00:39:50;;;;;;;8.88;4.88;;;12.50;91.70;;;;;;4974220;28;20057;-85
2021/05/09 00:42:16;;;;;;;8.35;4.90;;;12.50;91.60;;;;;;4974967;28;20416;-84
2021/05/09 00:44:44;;;;;;;8.00;4.90;;;12.40;91.60;;;;;;4973820;28;20058;-85
2021/05/09 00:47:12;;;;;;;9.80;5.05;;;12.50;91.60;;;;;;4974550;28;20177;-84
2021/05/09 00:49:39;;;;;;;11.90;5.43;;;12.40;91.60;;;;;;4974792;28;20046;-85
2021/05/09 00:52:10;;;;;;;8.60;4.78;;;12.40;91.60;;;;;;4974126;28;20039;-85
2021/05/09 00:54:44;;;;;;;7.07;4.68;;;12.40;91.60;;;;;;4974756;28;20046;-85
2021/05/09 00:57:13;;;;;;;9.30;4.65;;;12.40;91.60;;;;;;4975103;28;20537;-84
2021/05/09 00:59:43;;;;;;;11.60;5.13;;;12.30;91.60;;;;;;4973309;28;20058;-84
2021/05/09 01:02:09;;;;;;;8.77;4.78;;;12.30;91.60;;;;;;4974816;28;20051;-85
2021/05/09 01:04:35;;;;;;;9.95;4.45;;;12.30;91.40;;;;;;4973606;28;20487;-85
2021/05/09 01:07:02;;;;;;;8.85;4.72;;;12.30;91.70;;;;;;4972644;28;20053;-85
2021/05/09 01:09:47;;;;;;;9.93;4.95;;;12.30;91.50;;;;;;4974058;28;20043;-84
2021/05/09 01:12:14;;;;;;;12.60;5.57;;;12.20;91.60;;;;;;4974462;28;20513;-85
2021/05/09 01:14:40;;;;;;;9.70;4.93;;;12.20;91.70;;;;;;4972282;28;20065;-83
2021/05/09 01:17:06;;;;;;;10.27;4.85;;;12.20;91.70;;;;;;4960565;28;20102;-85
2021/05/09 01:19:34;;;;;;;10.80;5.00;;;12.20;91.70;;;;;;4955074;28;20059;-85
2021/05/09 01:22:00;;;;;;;10.88;4.65;;;12.20;91.80;;;;;;4955773;28;20443;-85
2021/05/09 01:24:26;;;;;;;10.95;4.55;;;12.10;91.80;;;;;;4974212;28;20410;-85
2021/05/09 01:26:52;;;;;;;8.93;4.68;;;12.10;91.70;;;;;;4972884;28;20050;-85
2021/05/09 01:29:19;;;;;;;9.23;5.00;;;12.10;91.60;;;;;;4974654;28;20085;-85
2021/05/09 01:31:45;;;;;;;9.10;5.00;;;12.10;91.50;;;;;;4974116;28;20070;-85
2021/05/09 01:34:11;;;;;;;7.20;4.80;;;12.10;91.60;;;;;;4973603;28;20046;-85
2021/05/09 01:36:36;;;;;;;10.55;5.25;;;12.10;91.60;;;;;;4974264;28;20094;-85
2021/05/09 01:39:05;;;;;;;11.00;5.05;;;12.00;91.70;;;;;;4974111;28;20453;-85
2021/05/09 01:41:31;;;;;;;10.23;4.65;;;12.00;91.60;;;;;;4973318;28;20109;-85
2021/05/09 01:43:57;;;;;;;9.07;5.10;;;12.00;91.60;;;;;;4965430;28;20121;-85
2021/05/09 01:46:23;;;;;;;10.63;5.15;;;12.00;91.70;;;;;;4962376;28;20490;-85
2021/05/09 01:48:50;;;;;;;9.65;4.95;;;12.00;91.70;;;;;;4973263;28;20059;-85
2021/05/09 01:51:16;;;;;;;10.77;5.40;;;11.90;91.80;;;;;;4973961;28;20051;-85
2021/05/09 01:53:42;;;;;;;8.95;4.53;;;11.90;91.80;;;;;;4967688;28;20569;-85
2021/05/09 01:56:08;;;;;;;9.70;4.40;;;11.90;91.60;;;;;;4962645;28;20051;-85
2021/05/09 01:58:33;;;;;;;8.70;5.28;;;11.90;91.60;;;;;;4969136;28;20051;-85
2021/05/09 02:01:00;;;;;;;9.23;5.35;;;11.80;91.60;;;;;;4972719;28;20446;-85
2021/05/09 02:03:25;;;;;;;9.43;5.38;;;11.80;91.70;;;;;;4953611;28;20047;-85
2021/05/09 02:05:51;;;;;;;9.57;5.03;;;11.80;91.80;;;;;;4954526;28;20102;-85
2021/05/09 02:08:17;;;;;;;8.32;4.65;;;11.80;91.80;;;;;;4954786;28;20051;-85
2021/05/09 02:10:42;;;;;;;7.63;5.07;;;11.80;91.60;;;;;;4953648;28;20047;-85
2021/05/09 02:13:08;;;;;;;8.98;5.18;;;11.70;91.60;;;;;;4962900;28;20047;-85
2021/05/09 02:15:34;;;;;;;8.60;5.20;;;11.80;91.50;;;;;;4965724;28;20051;-84
2021/05/09 02:18:00;;;;;;;9.23;5.00;;;11.70;91.70;;;;;;4972894;28;20043;-84
2021/05/09 02:20:25;;;;;;;9.05;5.25;;;11.70;91.70;;;;;;4954625;28;20063;-85
2021/05/09 02:22:51;;;;;;;7.43;4.95;;;11.70;91.60;;;;;;4965462;28;20047;-85
2021/05/09 02:25:17;;;;;;;8.52;4.90;;;11.70;91.70;;;;;;4972687;28;20125;-86
2021/05/09 02:27:43;;;;;;;11.75;6.03;;;11.60;91.50;;;;;;4973227;28;20051;-85
2021/05/09 02:30:09;;;;;;;7.75;4.57;;;11.60;91.60;;;;;;4973025;28;20071;-85
2021/05/09 02:32:34;;;;;;;8.45;5.25;;;11.60;91.40;;;;;;4973824;28;20074;-85
2021/05/09 02:35:00;;;;;;;8.38;4.90;;;11.60;91.30;;;;;;4973290;28;20050;-85
2021/05/09 02:37:26;;;;;;;9.30;4.90;;;11.60;91.30;;;;;;4972760;28;20047;-85
2021/05/09 02:39:53;;;;;;;10.05;5.18;;;11.50;91.30;;;;;;4973321;28;20062;-85
2021/05/09 02:42:18;;;;;;;8.60;4.72;;;11.60;91.30;;;;;;4973131;28;20062;-85
2021/05/09 02:44:44;;;;;;;10.85;5.57;;;11.50;91.30;;;;;;4972061;28;20498;-85
2021/05/09 02:47:27;;;;;;;9.90;5.45;;;11.50;91.30;;;;;;4973536;28;20043;-85
2021/05/09 02:49:56;;;;;;;11.10;5.55;;;11.50;91.50;;;;;;4972995;28;20055;-85
2021/05/09 02:52:22;;;;;;;10.63;5.28;;;11.50;91.60;;;;;;4974263;28;20053;-85
2021/05/09 02:54:48;;;;;;;9.25;5.13;;;11.50;91.60;;;;;;4976580;28;20051;-85
2021/05/09 02:57:14;;;;;;;8.77;5.22;;;11.50;91.60;;;;;;4976974;28;20525;-85
2021/05/09 02:59:39;;;;;;;10.60;5.30;;;11.50;91.50;;;;;;4976332;28;20087;-85
2021/05/09 03:02:06;;;;;;;11.30;5.32;;;11.50;91.60;;;;;;4976758;28;20047;-84
2021/05/09 03:04:31;;;;;;;9.40;5.00;;;11.50;91.50;;;;;;4976659;28;20050;-85
2021/05/09 03:06:57;;;;;;;7.80;4.85;;;11.40;91.40;;;;;;4975913;28;20134;-85
2021/05/09 03:09:23;;;;;;;9.60;5.40;;;11.40;91.40;;;;;;4977102;28;20074;-86
2021/05/09 03:11:49;;;;;;;8.18;4.55;;;11.40;91.50;;;;;;4976511;28;20070;-85
2021/05/09 03:14:14;;;;;;;9.35;4.93;;;11.40;91.30;;;;;;4975775;28;20402;-85
2021/05/09 03:16:40;;;;;;;9.65;4.63;;;11.40;91.40;;;;;;4976164;28;20483;-85
2021/05/09 03:19:05;;;;;;;10.93;4.85;;;11.40;91.30;;;;;;4976656;28;20042;-85
2021/05/09 03:21:31;;;;;;;8.82;5.32;;;11.30;91.30;;;;;;4975674;28;20047;-85
2021/05/09 03:23:56;;;;;;;6.85;4.35;;;11.40;91.40;;;;;;4976184;28;20520;-85
2021/05/09 03:26:22;;;;;;;11.30;5.38;;;11.40;91.20;;;;;;4975533;28;20061;-86
2021/05/09 03:28:48;;;;;;;9.18;4.93;;;11.40;91.30;;;;;;4976471;28;20053;-85
2021/05/09 03:31:14;;;;;;;10.15;5.05;;;11.30;91.30;;;;;;4976305;28;20062;-84
2021/05/09 03:33:39;;;;;;;10.73;4.63;;;11.30;91.50;;;;;;4975625;28;20089;-84
2021/05/09 03:36:05;;;;;;;10.82;4.72;;;11.40;91.50;;;;;;4976373;28;20092;-84
2021/05/09 03:38:31;;;;;;;11.00;4.53;;;11.40;91.30;;;;;;4976300;28;20047;-85
2021/05/09 03:40:57;;;;;;;9.95;4.78;;;11.30;91.40;;;;;;4975062;28;20498;-84
2021/05/09 03:43:22;;;;;;;9.57;5.10;;;11.30;91.50;;;;;;4976202;28;20063;-85
2021/05/09 03:45:48;;;;;;;9.65;5.07;;;11.30;91.50;;;;;;4975458;28;20402;-84
2021/05/09 03:48:14;;;;;;;10.02;4.32;;;11.40;91.50;;;;;;4975447;28;20086;-84
2021/05/09 03:50:39;;;;;;;8.05;4.35;;;11.40;91.30;;;;;;4964122;28;20143;-85
2021/05/09 03:53:05;;;;;;;9.68;4.97;;;11.40;91.20;;;;;;4959701;28;20047;-84
2021/05/09 03:55:31;;;;;;;9.95;4.95;;;11.40;91.40;;;;;;4973956;28;20058;-84
2021/05/09 03:57:56;;;;;;;8.77;5.00;;;11.40;91.50;;;;;;4956184;28;20051;-86
2021/05/09 04:00:24;;;;;;;9.45;4.97;;;11.40;91.50;;;;;;4956702;28;20055;-84
2021/05/09 04:02:51;;;;;;;8.40;4.90;;;11.40;91.50;;;;;;4959858;28;20050;-84
2021/05/09 04:05:16;;;;;;;9.52;5.22;;;11.40;91.50;;;;;;4975411;28;20166;-84
2021/05/09 04:07:42;;;;;;;8.73;5.10;;;11.30;91.40;;;;;;4975477;28;20050;-84
2021/05/09 04:10:08;;;;;;;9.52;5.20;;;11.30;91.40;;;;;;4974838;28;20061;-84
2021/05/09 04:12:34;;;;;;;10.02;5.30;;;11.40;91.50;;;;;;4975750;28;20050;-84
2021/05/09 04:14:59;;;;;;;10.57;5.22;;;11.40;91.50;;;;;;4975556;28;20051;-84
2021/05/09 04:17:25;;;;;;;10.10;4.78;;;11.40;91.60;;;;;;4974808;28;20125;-84
2021/05/09 04:19:51;;;;;;;10.30;5.38;;;11.40;91.40;;;;;;4975295;28;20078;-85
2021/05/09 04:22:17;;;;;;;12.50;5.50;;;11.40;91.30;;;;;;4975631;28;20475;-85
2021/05/09 04:24:43;;;;;;;9.77;5.30;;;11.40;91.40;;;;;;4973818;28;20130;-86
2021/05/09 04:27:09;;;;;;;11.10;5.50;;;11.40;91.50;;;;;;4975477;28;20085;-85
2021/05/09 04:29:35;;;;;;;9.85;5.07;;;11.40;91.40;;;;;;4974543;28;20077;-85
2021/05/09 04:32:03;;;;;;;11.27;5.78;;;11.40;91.50;;;;;;4975260;28;20051;-85
2021/05/09 04:34:28;;;;;;;12.40;5.60;;;11.40;91.50;;;;;;4975373;28;20081;-84
2021/05/09 04:36:55;;;;;;;8.10;5.03;;;11.50;91.60;;;;;;4973864;28;20055;-84
2021/05/09 04:39:21;;;;;;;9.75;5.35;;;11.50;91.60;;;;;;4975078;28;20054;-85
2021/05/09 04:41:46;;;;;;;10.95;5.85;;;11.50;91.70;;;;;;4975049;28;20043;-84
2021/05/09 04:44:12;;;;;;;8.93;4.90;;;11.50;91.60;;;;;;4973972;28;20058;-85
2021/05/09 04:46:38;;;;;;;11.85;5.40;;;11.50;91.60;;;;;;4973618;28;20130;-85
2021/05/09 04:49:04;;;;;;;9.48;5.10;;;11.50;91.70;;;;;;4975148;28;20606;-84
2021/05/09 04:51:30;;;;;;;12.48;5.53;;;11.60;91.60;;;;;;4974006;28;20051;-85
2021/05/09 04:53:55;;;;;;;10.90;5.30;;;11.50;91.60;;;;;;4974591;28;20051;-85
2021/05/09 04:56:21;;;;;;;9.07;4.80;;;11.60;91.70;;;;;;4974868;28;20158;-85
2021/05/09 04:58:47;;;;;;;9.80;4.70;;;11.60;91.60;;;;;;4972896;28;20051;-85
2021/05/09 05:01:13;;;;;;;7.35;4.72;;;11.60;91.50;;;;;;4974365;28;20050;-84
2021/05/09 05:03:39;;;;;;;8.93;4.82;;;11.60;91.40;;;;;;4974746;28;20121;-84
2021/05/09 05:06:05;;;;;;;10.43;4.68;;;11.60;91.40;;;;;;4973935;28;20490;-85
2021/05/09 05:08:33;;;;;;;8.23;4.88;;;11.60;91.40;;;;;;4974529;28;20043;-85
2021/05/09 05:11:00;;;;;;;7.97;4.63;;;11.70;91.40;;;;;;4962138;28;20051;-85
2021/05/09 05:13:33;;;;;;;10.40;5.22;;;11.60;91.40;;;;;;4962948;28;20607;-87
2021/05/09 05:16:01;;;;;;;10.60;5.00;;;11.70;91.50;;;;;;4971932;28;20486;-86
2021/05/09 05:18:27;;;;;;;9.32;5.03;;;11.70;91.60;;;;;;4974832;28;20061;-84
2021/05/09 05:21:01;;;;;;;10.70;5.13;;;11.80;91.60;;;;;;4973169;28;20047;-87
2021/05/09 05:23:27;;;;;;;11.77;5.15;;;11.80;91.50;;;;;;4974960;28;20458;-84
2021/05/09 05:25:53;;;;;;;12.68;5.00;;;11.80;91.50;;;;;;4973357;28;20590;-86
2021/05/09 05:28:20;;;;;;;9.80;5.00;;;11.90;91.50;;;;;;4960030;28;20066;-83
2021/05/09 05:30:45;;;;;;;9.32;5.18;;;11.90;91.50;;;;;;4954905;28;20130;-80
2021/05/09 05:33:28;;;;;;;9.13;4.53;;;12.00;91.30;;;;;;4954170;28;20563;-79
2021/05/09 05:35:54;;;;;;;9.40;4.53;;;12.00;91.30;;;;;;4954973;28;20090;-80
2021/05/09 05:38:20;;;;;;;8.98;5.20;;;12.00;91.30;;;;;;4955021;28;20078;-80
2021/05/09 05:40:48;;;;;;;9.68;5.05;;;12.10;91.30;;;;;;4966212;28;20050;-85
2021/05/09 05:43:14;;;;;;;11.23;4.78;;;12.10;91.30;;;;;;4960501;28;20130;-83
2021/05/09 05:45:39;;;;;;;10.50;4.85;;;12.10;91.20;;;;;;4957233;28;20109;-86
2021/05/09 05:48:05;;;;;;;10.60;4.40;;;12.20;91.20;;;;;;4965757;28;20081;-84
2021/05/09 05:50:31;;;;;;;8.13;4.65;;;12.20;91.10;;;;;;4971205;28;20510;-84
2021/05/09 05:52:56;;;;;;;6.80;4.00;;;12.20;91.10;;;;;;4970059;28;20162;-85
2021/05/09 05:55:22;;;;;;;8.43;4.40;;;12.30;91.00;;;;;;4971904;28;20141;-86
2021/05/09 05:57:48;;;;;;;8.70;4.43;;;12.30;91.10;;;;;;4973775;28;20047;-85
2021/05/09 06:00:14;;;;;;;8.50;4.72;;;12.40;91.20;;;;;;4971178;28;20058;-86
2021/05/09 06:02:39;;;;;;;12.13;4.70;;;12.40;91.10;;;;;;4972930;28;20130;-82
2021/05/09 06:05:06;;;;;;;7.88;4.25;;;12.40;91.00;;;;;;4973040;28;20065;-83
2021/05/09 06:07:32;;;;;;;11.57;5.00;;;12.50;91.10;;;;;;4970349;28;20046;-83
2021/05/09 06:09:57;;;;;;;10.45;5.13;;;12.60;91.10;;;;;;4971248;28;20051;-83
2021/05/09 06:12:23;;;;;;;10.27;4.90;;;12.60;91.20;;;;;;4973639;28;20572;-84
2021/05/09 06:14:49;;;;;;;9.52;4.95;;;12.70;91.20;;;;;;4973156;28;20047;-83
2021/05/09 06:17:14;;;;;;;10.30;4.50;;;12.80;91.20;;;;;;4972991;28;20051;-83
2021/05/09 06:19:43;;;;;;;8.13;4.30;;;12.90;91.00;;;;;;4973254;28;20057;-83
2021/05/09 06:22:09;;;;;;;8.65;4.60;;;13.00;90.80;;;;;;4973110;28;20130;-84
2021/05/09 06:24:34;;;;;;;8.65;4.50;;;13.10;90.80;;;;;;4970761;28;20150;-84
2021/05/09 06:27:00;;;;;;;7.97;4.10;;;13.20;90.80;;;;;;4975591;28;20086;-83
2021/05/09 06:29:26;;;;;;;7.97;4.20;;;13.30;90.70;;;;;;4976513;28;20487;-82
2021/05/09 06:31:51;;;;;;;8.07;4.50;;;13.40;90.70;;;;;;4974152;28;20629;-83
2021/05/09 06:34:17;;;;;;;8.88;4.53;;;13.50;90.70;;;;;;4976287;28;20054;-83
2021/05/09 06:36:42;;;;;;;8.43;4.55;;;13.60;90.60;;;;;;4975199;28;20055;-83
2021/05/09 06:39:08;;;;;;;13.27;4.93;;;13.70;90.50;;;;;;4977340;28;20109;-85
2021/05/09 06:41:35;;;;;;;7.85;4.38;;;13.80;90.40;;;;;;4977118;28;20051;-85
2021/05/09 06:44:04;;;;;;;8.15;4.25;;;13.80;90.30;;;;;;4971923;28;20059;-86
2021/05/09 06:46:30;;;;;;;10.05;4.60;;;13.90;90.00;;;;;;4962066;28;20145;-85
2021/05/09 06:48:56;;;;;;;7.60;4.47;;;14.00;90.00;;;;;;4956649;28;20052;-85
2021/05/09 06:51:21;;;;;;;7.88;4.45;;;14.10;89.90;;;;;;4956282;28;20138;-86
2021/05/09 06:53:47;;;;;;;8.32;4.75;;;14.20;89.60;;;;;;4957737;28;20051;-86
2021/05/09 06:56:13;;;;;;;8.60;4.43;;;14.20;89.20;;;;;;4958118;28;20051;-86
2021/05/09 06:58:40;;;;;;;7.75;3.97;;;14.30;89.10;;;;;;4956573;28;20062;-85
2021/05/09 07:01:06;;;;;;;10.52;4.80;;;14.40;89.00;;;;;;4957394;28;20051;-86
2021/05/09 07:03:32;;;;;;;6.65;4.15;;;14.50;89.30;;;;;;4968734;28;20506;-85
2021/05/09 07:05:58;;;;;;;8.63;4.50;;;14.60;88.90;;;;;;4976099;28;20055;-85
2021/05/09 07:08:24;;;;;;;9.32;4.85;;;14.60;88.80;;;;;;4977058;28;20070;-85
2021/05/09 07:10:50;;;;;;;8.77;4.55;;;14.70;88.70;;;;;;4976808;28;20059;-86
2021/05/09 07:13:15;;;;;;;7.65;4.25;;;14.80;88.50;;;;;;4976133;28;20486;-86
2021/05/09 07:15:42;;;;;;;8.43;4.60;;;14.90;88.30;;;;;;4976234;28;20053;-87
2021/05/09 07:18:12;;;;;;;10.25;4.57;;;15.00;88.20;;;;;;4976450;28;20049;-86
2021/05/09 07:20:41;;;;;;;9.77;4.35;;;15.00;87.70;;;;;;4974684;28;20492;-86
2021/05/09 07:23:07;;;;;;;8.63;4.45;;;15.10;87.70;;;;;;4976788;28;20051;-85
2021/05/09 07:25:33;;;;;;;9.18;4.45;;;15.10;87.50;;;;;;4975893;28;20094;-86
2021/05/09 07:28:05;;;;;;;10.55;4.60;;;15.20;87.40;;;;;;4975446;28;20071;-86
2021/05/09 07:30:31;;;;;;;10.02;5.05;;;15.30;87.10;;;;;;4976695;28;20146;-87
2021/05/09 07:32:57;;;;;;;10.85;4.28;;;15.30;86.80;;;;;;4975648;28;20050;-86
2021/05/09 07:35:23;;;;;;;8.35;4.20;;;15.40;86.60;;;;;;4976623;28;20055;-86
2021/05/09 07:37:48;;;;;;;9.07;4.40;;;15.50;86.30;;;;;;4975609;28;20047;-86
2021/05/09 07:40:14;;;;;;;9.32;4.32;;;15.50;86.30;;;;;;4975931;28;20402;-86
2021/05/09 07:42:40;;;;;;;10.13;5.10;;;15.60;86.20;;;;;;4976004;28;20096;-86
2021/05/09 07:45:08;;;;;;;8.80;4.45;;;15.60;85.90;;;;;;4976506;28;20047;-86
2021/05/09 07:47:34;;;;;;;10.63;4.97;;;15.70;85.60;;;;;;4975751;28;20120;-86
2021/05/09 07:49:59;;;;;;;8.43;4.85;;;15.70;85.60;;;;;;4976054;28;20495;-86
2021/05/09 07:52:25;;;;;;;9.95;4.65;;;15.80;85.60;;;;;;4975891;28;20043;-86
2021/05/09 07:54:51;;;;;;;10.23;4.95;;;15.80;85.30;;;;;;4975090;28;20051;-86
2021/05/09 07:57:16;;;;;;;11.15;4.90;;;15.90;85.20;;;;;;4975766;28;20053;-85
2021/05/09 07:59:42;;;;;;;8.57;4.53;;;16.00;85.20;;;;;;4975175;28;20406;-85
2021/05/09 08:02:09;;;;;;;10.60;4.38;;;16.00;85.00;;;;;;4974218;28;20502;-87
2021/05/09 08:04:34;;;;;;;9.65;4.60;;;16.10;84.80;;;;;;4967559;28;20093;-86
2021/05/09 08:07:01;;;;;;;8.65;4.68;;;16.20;84.70;;;;;;4960158;28;20105;-86
2021/05/09 08:09:26;;;;;;;9.40;4.45;;;16.20;84.70;;;;;;4971482;28;20051;-87
2021/05/09 08:11:52;;;;;;;10.88;4.53;;;16.30;84.40;;;;;;4975330;28;20047;-86
2021/05/09 08:14:20;;;;;;;8.23;4.43;;;16.40;84.40;;;;;;4975818;28;20050;-87
2021/05/09 08:16:46;;;;;;;9.65;4.55;;;16.50;84.50;;;;;;4974939;28;20057;-87
2021/05/09 08:19:12;;;;;;;8.02;4.30;;;16.60;84.20;;;;;;4975621;28;20133;-87
2021/05/09 08:21:37;;;;;;;6.70;4.03;;;16.70;83.80;;;;;;4974936;28;20050;-86
2021/05/09 08:24:03;;;;;;;9.48;4.43;;;16.80;83.10;;;;;;4975375;28;20105;-86
2021/05/09 08:26:29;;;;;;;10.70;4.18;;;16.90;83.00;;;;;;4974934;28;20051;-84
2021/05/09 08:28:54;;;;;;;7.63;3.83;;;17.00;82.50;;;;;;4974487;28;20043;-87
2021/05/09 08:31:20;;;;;;;8.02;4.13;;;17.10;82.30;;;;;;4971720;28;20077;-87
2021/05/09 08:33:48;;;;;;;9.65;3.50;;;17.20;82.20;;;;;;4974941;28;20093;-86
2021/05/09 08:36:15;;;;;;;6.45;3.67;;;17.30;82.40;;;;;;4974803;28;20050;-86
2021/05/09 08:38:40;;;;;;;10.00;3.58;;;17.40;81.90;;;;;;4974929;28;20055;-86
2021/05/09 08:41:06;;;;;;;6.65;3.47;;;17.50;81.50;;;;;;4975284;28;20051;-87
2021/05/09 08:43:32;;;;;;;8.23;3.85;;;17.60;81.10;;;;;;4974309;28;20066;-87
2021/05/09 08:45:59;;;;;;;6.82;2.95;;;17.60;81.00;;;;;;4975174;28;20047;-85
2021/05/09 08:48:26;;;;;;;7.22;3.50;;;17.70;81.30;;;;;;4974894;28;20054;-85
2021/05/09 08:50:51;;;;;;;7.38;2.88;;;17.90;80.90;;;;;;4973271;28;20050;-85
2021/05/09 08:53:18;;;;;;;7.43;3.10;;;17.90;79.80;;;;;;4963065;28;20549;-84
2021/05/09 08:55:44;;;;;;;9.02;3.15;;;18.00;79.90;;;;;;4963721;28;20415;-86
2021/05/09 08:58:11;;;;;;;4.93;2.88;;;18.10;79.70;;;;;;4954971;28;20055;-85
2021/05/09 09:00:37;;;;;;;9.88;2.85;;;18.20;78.80;;;;;;4972754;28;20043;-85
2021/05/09 09:03:04;;;;;;;5.22;2.60;;;18.30;78.30;;;;;;4965716;28;20043;-89
2021/05/09 09:05:34;;;;;;;5.82;2.42;;;18.50;78.50;;;;;;4965522;28;20051;-89
2021/05/09 09:08:00;;;;;;;6.18;2.60;;;18.60;78.40;;;;;;4974320;28;20515;-89
2021/05/09 09:10:54;;;;;;;6.30;2.80;;;18.70;78.20;;;;;;4974639;28;20054;-89
2021/05/09 09:13:23;;;;;;;5.68;2.30;;;18.80;77.10;;;;;;4974826;28;20055;-91
2021/05/09 09:16:03;;;;;;;4.35;2.30;;;18.90;77.10;;;;;;4972987;28;20130;-90
2021/05/09 09:18:34;;;;;;;7.32;2.47;;;19.00;76.80;;;;;;4973947;28;20078;-89
2021/05/09 09:21:29;;;;;;;5.68;2.38;;;19.00;76.00;;;;;;4974329;28;20152;-91
2021/05/09 09:24:11;;;;;;;10.07;2.00;;;19.10;76.00;;;;;;4969115;28;20047;-89
2021/05/09 09:26:52;;;;;;;8.15;2.13;;;19.10;75.70;;;;;;4958449;28;20062;-88
2021/05/09 09:29:28;;;;;;;5.00;2.20;;;19.10;74.80;;;;;;4972203;28;20598;-90
2021/05/09 09:32:02;;;;;;;5.68;2.40;;;19.00;74.10;;;;;;4974832;28;20439;-90
2021/05/09 09:34:45;;;;;;;5.18;2.58;;;19.00;74.90;;;;;;4955632;28;20043;-85
2021/05/09 09:37:13;;;;;;;8.23;2.58;;;19.00;74.70;;;;;;4955207;28;20138;-87
2021/05/09 09:39:47;;;;;;;7.38;2.45;;;18.90;75.00;;;;;;4964836;28;20138;-86
2021/05/09 09:42:14;;;;;;;4.70;2.40;;;18.90;75.30;;;;;;4968983;28;20512;-86
2021/05/09 09:44:40;;;;;;;5.00;2.35;;;18.90;76.20;;;;;;4957366;28;20095;-87
2021/05/09 09:47:05;;;;;;;6.25;2.53;;;18.80;76.00;;;;;;4965264;28;20082;-86
2021/05/09 09:49:35;;;;;;;5.70;2.10;;;18.80;76.60;;;;;;4970641;28;20543;-85
2021/05/09 09:52:07;;;;;;;6.28;2.33;;;18.70;76.30;;;;;;4969562;28;20454;-85
2021/05/09 09:54:41;;;;;;;6.70;2.42;;;18.70;76.90;;;;;;4958355;28;20054;-85
2021/05/09 09:57:09;;;;;;;5.65;2.33;;;18.60;77.70;;;;;;4955866;28;20058;-85
2021/05/09 09:59:35;;;;;;;6.82;2.60;;;18.60;78.60;;;;;;4966944;28;20126;-87
2021/05/09 10:02:07;;;;;;;6.38;2.42;;;18.70;79.50;;;;;;4972492;28;20134;-87
2021/05/09 10:04:33;;;;;;;4.90;2.58;;;18.70;79.80;;;;;;4962111;28;20059;-86
2021/05/09 10:07:05;;;;;;;8.18;2.30;;;18.70;79.70;;;;;;4973464;28;20142;-87
2021/05/09 10:09:31;;;;;;;5.53;2.38;;;18.70;78.80;;;;;;4973189;28;20093;-87
2021/05/09 10:11:57;;;;;;;5.22;2.65;;;18.70;78.90;;;;;;4973654;28;20043;-87
2021/05/09 10:14:23;;;;;;;5.68;2.42;;;18.80;78.80;;;;;;4972599;28;20058;-88
2021/05/09 10:16:50;;;;;;;5.32;2.10;;;18.80;78.80;;;;;;4972588;28;20043;-87
2021/05/09 10:19:23;;;;;;;5.07;2.25;;;18.90;78.30;;;;;;4960613;28;20114;-86
2021/05/09 10:21:49;;;;;;;6.20;2.55;;;19.00;78.20;;;;;;4963869;28;20057;-87
2021/05/09 10:24:21;;;;;;;6.22;2.28;;;19.00;78.50;;;;;;4973676;28;20062;-86
2021/05/09 10:26:59;;;;;;;6.95;2.33;;;19.20;77.80;;;;;;4970716;28;20051;-87
2021/05/09 10:29:45;;;;;;;5.82;2.35;;;19.30;77.70;;;;;;4960368;28;20051;-87
2021/05/09 10:32:22;;;;;;;6.72;2.20;;;19.40;77.60;;;;;;4969872;28;20062;-86
2021/05/09 10:34:57;;;;;;;5.13;2.10;;;19.50;77.10;;;;;;4973631;28;20055;-86
2021/05/09 10:37:43;;;;;;;4.38;1.90;;;19.50;76.70;;;;;;4969183;28;20122;-85
2021/05/09 10:40:27;;;;;;;6.28;2.03;;;19.70;76.30;;;;;;4961272;28;20051;-86
2021/05/09 10:43:04;;;;;;;5.63;2.28;;;19.70;76.40;;;;;;4959222;28;20142;-85
2021/05/09 10:45:36;;;;;;;8.15;2.45;;;19.80;76.30;;;;;;4972910;28;20058;-86
2021/05/09 10:50:41;;;;;;;5.10;1.85;;;19.90;75.50;;;;;;4966721;28;20058;-94
2021/05/09 10:53:09;;;;;;;5.80;1.85;;;20.00;76.00;;;;;;4963820;28;20055;-85
2021/05/09 10:55:45;;;;;;;5.80;1.60;;;20.20;74.60;;;;;;4965035;28;20074;-87
2021/05/09 10:58:17;;;;;;;4.10;1.40;;;20.30;73.00;;;;;;4959599;28;20055;-86
2021/05/09 11:00:58;;;;;;;4.50;1.50;;;20.40;73.80;;;;;;4956616;28;20058;-88
2021/05/09 11:03:38;;;;;;;2.83;1.30;;;20.50;72.10;;;;;;4953830;28;20407;-88
2021/05/09 11:06:08;;;;;;;3.63;1.10;;;20.70;72.30;;;;;;4954322;28;20058;-87
2021/05/09 11:08:42;;;;;;;4.00;1.38;;;20.80;70.20;;;;;;4954205;28;20132;-88
2021/05/09 11:11:13;;;;;;;2.20;1.10;;;20.90;69.40;;;;;;4953243;28;20055;-87
2021/05/09 11:14:08;;;;;;;3.20;1.00;;;21.00;68.70;;;;;;4955973;28;20047;-87
2021/05/09 11:16:38;;;;;;;3.83;1.05;;;21.10;67.60;;;;;;4957851;28;20047;-89
2021/05/09 11:19:15;;;;;;;4.50;1.15;;;21.20;67.30;;;;;;4956925;28;20051;-88
2021/05/09 11:21:46;;;;;;;3.05;1.00;;;21.30;65.90;;;;;;4957368;28;20057;-88
2021/05/09 11:24:33;;;;;;;2.45;0.98;;;21.40;64.80;;;;;;4957688;28;20074;-87
2021/05/09 11:27:04;;;;;;;3.42;1.10;;;21.60;64.20;;;;;;4957205;28;20514;-88
2021/05/09 11:29:30;;;;;;;3.33;1.30;;;21.70;63.10;;;;;;4957861;28;20796;-88
2021/05/09 11:32:13;;;;;;;3.13;1.00;;;21.80;62.30;;;;;;4956522;28;20053;-88
2021/05/09 11:34:47;;;;;;;3.60;1.08;;;21.90;62.20;;;;;;4957252;28;20380;-88
2021/05/09 11:37:13;;;;;;;4.70;1.30;;;21.90;61.80;;;;;;4957385;28;20055;-89
2021/05/09 11:39:39;;;;;;;3.78;1.15;;;22.00;64.00;;;;;;4956190;28;20047;-89
2021/05/09 11:42:15;;;;;;;3.65;1.27;;;22.00;62.50;;;;;;4957379;28;20051;-89
2021/05/09 11:44:57;;;;;;;3.85;1.48;;;22.10;63.70;;;;;;4956506;28;20099;-88
2021/05/09 11:47:27;;;;;;;5.28;1.20;;;22.20;63.30;;;;;;4956485;28;20055;-89
2021/05/09 11:50:09;;;;;;;3.80;1.10;;;22.20;63.70;;;;;;4956680;28;20050;-88
2021/05/09 11:52:37;;;;;;;3.45;1.10;;;22.20;63.90;;;;;;4957095;28;20514;-89
2021/05/09 11:55:05;;;;;;;3.58;1.15;;;22.20;62.80;;;;;;4957011;28;20051;-90
2021/05/09 11:57:31;;;;;;;4.93;1.30;;;22.20;62.80;;;;;;4957187;28;20047;-90
2021/05/09 12:00:17;;;;;;;3.85;1.23;;;22.30;62.70;;;;;;4956115;28;20051;-88
2021/05/09 12:02:47;;;;;;;5.78;1.20;;;22.30;61.20;;;;;;4956656;28;20525;-89
2021/05/09 12:05:21;;;;;;;3.75;1.20;;;22.40;62.90;;;;;;4957249;28;20055;-89
2021/05/09 12:07:47;;;;;;;2.78;1.10;;;22.50;62.20;;;;;;4956084;28;20447;-91
2021/05/09 12:10:27;;;;;;;3.72;1.08;;;22.50;62.70;;;;;;4956774;28;20055;-89
2021/05/09 12:13:06;;;;;;;4.05;1.00;;;22.60;61.30;;;;;;4956571;28;20059;-88
2021/05/09 12:15:33;;;;;;;3.60;1.20;;;22.70;62.30;;;;;;4955817;28;20058;-90
2021/05/09 12:17:59;;;;;;;3.15;1.00;;;22.80;61.90;;;;;;4956239;28;20057;-88
2021/05/09 12:20:36;;;;;;;2.95;1.17;;;22.90;60.50;;;;;;4956696;28;20138;-89
2021/05/09 12:23:10;;;;;;;3.78;1.20;;;23.00;59.70;;;;;;4955571;28;20126;-89
2021/05/09 12:25:42;;;;;;;4.47;1.20;;;23.10;59.90;;;;;;4956441;28;20054;-89
2021/05/09 12:28:09;;;;;;;5.57;1.30;;;23.10;59.70;;;;;;4955705;28;20178;-90
2021/05/09 12:30:34;;;;;;;6.38;1.10;;;23.10;59.90;;;;;;4956510;28;20051;-89
2021/05/09 12:33:00;;;;;;;3.60;1.30;;;23.20;59.70;;;;;;4956219;28;20138;-90
2021/05/09 12:35:26;;;;;;;3.65;1.38;;;23.20;59.40;;;;;;4955497;28;20058;-89
2021/05/09 12:37:55;;;;;;;4.68;1.20;;;23.20;59.20;;;;;;4955879;28;20122;-90
2021/05/09 12:40:36;;;;;;;2.78;1.10;;;23.20;59.30;;;;;;4956012;28;20051;-89
2021/05/09 12:43:08;;;;;;;5.18;1.20;;;23.20;59.20;;;;;;4955352;28;20159;-90
2021/05/09 12:45:48;;;;;;;5.25;1.20;;;23.10;59.80;;;;;;4956237;28;20055;-89
2021/05/09 12:48:30;;;;;;;3.65;1.67;;;23.10;59.60;;;;;;4956188;28;20051;-90
2021/05/09 12:51:07;;;;;;;5.13;1.55;;;23.10;60.00;;;;;;4954918;28;20442;-91
2021/05/09 12:53:48;;;;;;;4.00;1.50;;;23.10;60.40;;;;;;4956186;28;20051;-91